Time;durP1;ratioP1;P1;durP2;ratioP2;P2;SDS_P1;SDS_P2;PMS_P1;PMS_P2;Temp;Humidity;BMP_temperature;BMP_pressure;BME280_temperature;BME280_humidity;BME280_pressure;Samples;Min_cycle;Max_cycle;Signal;HPM_P1;HPM_P2
2022/05/07 00:00:34;;;;;;;23.15;12.55;;;;;;;12.33;76.27;102050.06;4988545;28;20049;-68
2022/05/07 00:03:00;;;;;;;20.25;11.85;;;;;;;12.18;76.84;102054.84;4986653;28;20045;-68
2022/05/07 00:05:26;;;;;;;21.75;12.48;;;;;;;12.05;77.23;102055.13;4986061;28;20034;-68
2022/05/07 00:07:51;;;;;;;20.17;11.75;;;;;;;11.97;77.65;102054.97;4990909;28;20112;-68
2022/05/07 00:10:17;;;;;;;19.88;11.25;;;;;;;11.95;77.50;102048.28;4988078;28;20038;-68
2022/05/07 00:12:42;;;;;;;16.77;11.07;;;;;;;11.94;77.73;102047.47;4986645;28;20031;-68
2022/05/07 00:15:09;;;;;;;20.48;11.25;;;;;;;11.94;77.92;102049.22;4983878;28;20720;-68
2022/05/07 00:20:19;;;;;;;20.88;11.77;;;;;;;11.94;77.75;102055.25;4988107;28;20489;-68
2022/05/07 00:22:45;;;;;;;25.42;11.27;;;;;;;11.85;78.13;102049.03;4985977;28;20058;-67
2022/05/07 00:25:10;;;;;;;19.90;12.13;;;;;;;11.84;78.63;102042.19;4987498;28;20058;-68
2022/05/07 00:27:36;;;;;;;18.10;10.95;;;;;;;11.86;78.71;102050.66;4987551;28;20057;-68
2022/05/07 00:30:04;;;;;;;20.73;11.25;;;;;;;11.86;78.77;102044.66;5002254;28;20149;-68
2022/05/07 00:32:29;;;;;;;21.65;11.07;;;;;;;11.86;78.44;102044.66;4968394;28;20039;-68
2022/05/07 00:34:55;;;;;;;23.60;11.57;;;;;;;11.86;78.19;102039.47;5003430;28;20026;-68
2022/05/07 00:37:23;;;;;;;22.17;11.40;;;;;;;11.83;78.20;102040.56;4998988;28;20031;-70
2022/05/07 00:39:49;;;;;;;20.73;11.18;;;;;;;11.73;78.63;102028.50;4987449;28;20030;-70
2022/05/07 00:42:15;;;;;;;19.90;12.10;;;;;;;11.59;78.85;102032.28;4986522;28;20038;-70
2022/05/07 00:44:41;;;;;;;18.15;11.13;;;;;;;11.45;79.44;102031.72;4986162;28;20089;-70
2022/05/07 00:47:18;;;;;;;16.85;11.02;;;;;;;11.39;80.12;102031.41;4986612;28;20097;-68
2022/05/07 00:49:46;;;;;;;19.67;10.40;;;;;;;11.40;79.93;102030.47;4983485;28;20389;-68
2022/05/07 00:52:13;;;;;;;21.35;11.48;;;;;;;11.43;79.78;102027.59;4985916;28;20030;-68
2022/05/07 00:54:43;;;;;;;22.67;12.02;;;;;;;11.41;79.69;102027.72;4985603;28;20026;-68
2022/05/07 00:57:09;;;;;;;19.35;11.77;;;;;;;11.42;79.94;102031.16;5023414;23;20768;-67
2022/05/07 00:59:35;;;;;;;21.40;11.88;;;;;;;11.41;79.81;102030.31;5054612;28;20029;-68
2022/05/07 01:02:00;;;;;;;17.67;10.60;;;;;;;11.38;79.95;102034.97;5039145;28;20037;-67
2022/05/07 01:04:26;;;;;;;19.67;11.43;;;;;;;11.37;79.97;102030.72;5039617;28;20036;-67
2022/05/07 01:06:53;;;;;;;19.73;10.50;;;;;;;11.36;79.95;102032.50;5055127;28;20033;-67
2022/05/07 01:09:20;;;;;;;18.65;10.63;;;;;;;11.37;79.60;102022.94;5029874;28;20499;-68
2022/05/07 01:11:46;;;;;;;17.92;11.55;;;;;;;11.38;79.59;102027.19;5033687;28;20112;-67
2022/05/07 01:14:12;;;;;;;17.77;10.88;;;;;;;11.36;79.65;102026.47;5023281;28;20372;-67
2022/05/07 01:16:38;;;;;;;20.83;12.15;;;;;;;11.26;80.89;102024.69;5029294;28;20029;-67
2022/05/07 01:19:04;;;;;;;22.63;11.27;;;;;;;11.25;80.56;102030.00;5031740;28;20026;-67
2022/05/07 01:21:30;;;;;;;19.52;11.60;;;;;;;11.19;80.67;102028.75;5041796;28;20048;-67
2022/05/07 01:23:58;;;;;;;18.38;10.85;;;;;;;11.07;80.88;102021.97;5024659;28;20030;-68
2022/05/07 01:26:28;;;;;;;18.20;11.35;;;;;;;10.98;81.63;102025.34;5041559;28;21322;-67
2022/05/07 01:29:06;;;;;;;19.08;11.63;;;;;;;10.96;81.87;102017.69;5038336;28;20044;-67
2022/05/07 01:31:36;;;;;;;19.02;11.43;;;;;;;10.99;81.73;102025.22;5039872;28;20048;-67
2022/05/07 01:34:02;;;;;;;22.40;12.15;;;;;;;11.02;81.56;102031.91;5043648;28;20024;-67
2022/05/07 01:36:29;;;;;;;17.70;10.98;;;;;;;11.05;81.30;102026.47;5025841;28;20799;-68
2022/05/07 01:39:02;;;;;;;19.58;12.02;;;;;;;11.06;81.34;102030.72;5021668;28;20045;-67
2022/05/07 01:41:28;;;;;;;22.83;12.40;;;;;;;11.04;81.67;102028.25;5025204;28;20549;-67
2022/05/07 01:43:53;;;;;;;24.58;13.52;;;;;;;11.01;81.99;102022.50;5006715;28;20063;-67
2022/05/07 01:49:08;;;;;;;24.10;12.57;;;;;;;10.86;82.49;102012.44;5019012;28;20132;-67
2022/05/07 01:51:34;;;;;;;22.85;12.68;;;;;;;10.78;82.92;102012.28;5020402;28;20131;-67
2022/05/07 01:54:00;;;;;;;22.20;12.25;;;;;;;10.77;83.09;102012.38;5022731;28;20392;-67
2022/05/07 01:56:27;;;;;;;22.90;12.80;;;;;;;10.71;83.42;102009.34;5041939;28;20087;-67
2022/05/07 01:58:53;;;;;;;23.98;13.30;;;;;;;10.67;83.67;102015.75;5013344;28;20045;-67
2022/05/07 02:01:19;;;;;;;22.65;12.52;;;;;;;10.60;84.01;102004.22;5022068;28;20589;-67
2022/05/07 02:03:44;;;;;;;21.60;11.88;;;;;;;10.54;84.01;102004.75;5009337;28;20526;-68
2022/05/07 02:06:12;;;;;;;23.67;13.40;;;;;;;10.48;84.41;102010.44;5043940;28;20041;-66
2022/05/07 02:08:38;;;;;;;27.23;12.85;;;;;;;10.45;84.61;102006.34;5040982;28;20048;-67
2022/05/07 02:11:10;;;;;;;26.52;12.95;;;;;;;10.45;84.96;102005.50;5003282;28;20130;-67
2022/05/07 02:13:35;;;;;;;26.63;12.68;;;;;;;10.43;85.10;102003.03;5037102;28;20029;-67
2022/05/07 02:16:02;;;;;;;25.05;12.57;;;;;;;10.46;84.72;102007.16;5023914;28;20112;-67
2022/05/07 02:18:27;;;;;;;21.90;12.25;;;;;;;10.48;84.53;102008.66;5038189;28;20033;-66
2022/05/07 02:20:53;;;;;;;21.00;12.32;;;;;;;10.52;84.23;102009.22;5041010;28;20084;-66
2022/05/07 02:23:22;;;;;;;22.83;12.70;;;;;;;10.50;84.11;102008.53;5019123;28;20503;-67
2022/05/07 02:25:48;;;;;;;24.98;12.27;;;;;;;10.48;84.29;102013.84;5025425;28;20051;-67
2022/05/07 02:28:14;;;;;;;27.52;12.63;;;;;;;10.48;84.14;102008.66;5022113;28;20934;-67
2022/05/07 02:30:40;;;;;;;22.27;11.95;;;;;;;10.50;84.18;102008.53;5022209;28;20113;-66
2022/05/07 02:33:06;;;;;;;24.17;12.30;;;;;;;10.50;84.02;102006.75;5039908;28;20029;-67
2022/05/07 02:35:35;;;;;;;21.38;12.68;;;;;;;10.52;83.88;102014.41;5024370;28;20121;-67
2022/05/07 02:38:00;;;;;;;26.70;13.30;;;;;;;10.50;84.08;102016.31;5026210;28;20463;-67
2022/05/07 02:40:26;;;;;;;23.60;13.13;;;;;;;10.50;84.16;102011.94;5022072;28;20045;-67
2022/05/07 02:42:55;;;;;;;23.42;12.85;;;;;;;10.51;83.95;102015.38;5020848;28;20014;-67
2022/05/07 02:45:22;;;;;;;20.50;12.15;;;;;;;10.49;83.84;102009.47;5023925;28;20503;-67
2022/05/07 02:48:01;;;;;;;21.67;12.13;;;;;;;10.45;84.29;102010.69;5023836;28;20073;-67
2022/05/07 02:50:28;;;;;;;19.58;12.07;;;;;;;10.45;84.11;102008.09;5017823;28;20582;-67
2022/05/07 02:52:54;;;;;;;23.98;12.73;;;;;;;10.44;83.83;102017.66;5019438;28;20030;-67
2022/05/07 02:55:19;;;;;;;22.27;12.52;;;;;;;10.42;83.80;102018.72;5035313;28;20107;-67
2022/05/07 02:57:49;;;;;;;22.05;12.02;;;;;;;10.36;84.51;102016.59;5025628;28;20506;-67
2022/05/07 03:00:16;;;;;;;26.77;12.93;;;;;;;10.29;84.65;102014.50;5021049;28;20029;-67
2022/05/07 03:02:42;;;;;;;24.23;13.13;;;;;;;10.28;84.70;102019.81;5019021;28;20029;-67
2022/05/07 03:05:08;;;;;;;23.05;13.02;;;;;;;10.29;85.24;102016.28;5025652;28;20033;-67
2022/05/07 03:07:33;;;;;;;24.42;13.55;;;;;;;10.27;85.08;102011.22;5034660;28;20060;-67
2022/05/07 03:10:04;;;;;;;26.90;14.68;;;;;;;10.24;85.38;102005.44;5036797;28;20115;-67
2022/05/07 03:12:29;;;;;;;26.30;14.23;;;;;;;10.20;85.60;102001.47;5019400;28;20118;-67
2022/05/07 03:14:55;;;;;;;25.05;13.70;;;;;;;10.12;86.08;102002.91;5023954;28;20033;-67
2022/05/07 03:17:20;;;;;;;26.17;13.55;;;;;;;10.09;86.43;101999.72;5023303;28;20839;-67
2022/05/07 03:19:46;;;;;;;24.85;13.38;;;;;;;10.03;86.34;101998.44;5023056;28;20041;-67
2022/05/07 03:22:12;;;;;;;22.73;12.82;;;;;;;10.03;86.85;102002.81;5020657;28;20137;-67
2022/05/07 03:24:40;;;;;;;24.63;13.82;;;;;;;10.03;86.91;102005.41;5007239;28;20037;-67
2022/05/07 03:27:07;;;;;;;26.27;13.60;;;;;;;10.04;86.57;102001.84;5011722;28;20037;-67
2022/05/07 03:29:33;;;;;;;23.17;13.48;;;;;;;10.06;86.68;102003.41;5028118;28;20048;-67
2022/05/07 03:32:09;;;;;;;25.92;12.82;;;;;;;10.05;86.24;102008.69;5042082;28;20025;-67
2022/05/07 03:34:36;;;;;;;25.63;14.82;;;;;;;10.00;86.35;102000.47;5028071;28;20029;-67
2022/05/07 03:37:02;;;;;;;25.10;14.30;;;;;;;9.99;86.41;102009.19;5046894;28;20505;-67
2022/05/07 03:39:30;;;;;;;26.00;13.75;;;;;;;9.99;86.39;102007.41;5030617;28;20147;-67
2022/05/07 03:41:56;;;;;;;27.42;13.57;;;;;;;9.94;86.34;102007.81;5026741;28;20557;-67
2022/05/07 03:44:22;;;;;;;26.55;13.55;;;;;;;9.87;86.45;102004.03;5029511;28;20037;-67
2022/05/07 03:46:51;;;;;;;23.42;13.57;;;;;;;9.79;87.19;102016.75;5029789;28;20211;-67
2022/05/07 03:49:18;;;;;;;26.17;14.00;;;;;;;9.75;87.49;102015.38;5022750;28;20631;-68
2022/05/07 03:54:33;;;;;;;24.58;13.40;;;;;;;9.78;87.45;102007.38;5011994;28;20049;-67
2022/05/07 03:56:59;;;;;;;26.13;13.93;;;;;;;9.78;87.32;102007.38;5048030;28;20033;-67
2022/05/07 03:59:31;;;;;;;25.33;13.70;;;;;;;9.75;87.21;102005.81;5022903;28;20072;-66
2022/05/07 04:01:57;;;;;;;24.20;14.80;;;;;;;9.72;87.45;102005.25;5042413;28;20387;-67
2022/05/07 04:04:28;;;;;;;26.75;13.75;;;;;;;9.71;87.63;102011.38;5026454;28;20036;-67
2022/05/07 04:06:59;;;;;;;22.85;13.50;;;;;;;9.70;87.63;102012.31;5030146;28;20029;-67
2022/05/07 04:09:25;;;;;;;21.70;13.20;;;;;;;9.71;87.91;102007.00;5008783;28;20073;-68
2022/05/07 04:11:54;;;;;;;21.67;13.15;;;;;;;9.69;87.80;102008.91;5006952;28;20033;-67
2022/05/07 04:14:19;;;;;;;25.45;13.93;;;;;;;9.68;88.03;102009.00;5023052;28;20045;-67
2022/05/07 04:16:47;;;;;;;25.27;13.45;;;;;;;9.67;87.99;102012.56;5029817;28;20087;-67
2022/05/07 04:19:15;;;;;;;26.55;13.98;;;;;;;9.67;87.77;102005.63;5023960;28;20053;-67
2022/05/07 04:21:42;;;;;;;25.33;14.68;;;;;;;9.67;87.98;102010.78;5042367;28;20036;-67
2022/05/07 04:24:14;;;;;;;25.70;14.23;;;;;;;9.67;87.96;102015.16;5040984;28;20032;-67
2022/05/07 04:26:41;;;;;;;28.77;14.00;;;;;;;9.69;87.90;102018.44;5045833;28;20464;-67
2022/05/07 04:29:07;;;;;;;23.27;13.13;;;;;;;9.71;87.72;102019.16;5028690;28;20541;-68
2022/05/07 04:31:33;;;;;;;20.30;12.38;;;;;;;9.75;87.49;102026.53;5025098;28;20065;-67
2022/05/07 04:34:03;;;;;;;21.05;12.52;;;;;;;9.74;87.40;102024.91;5039807;28;20108;-67
2022/05/07 04:36:32;;;;;;;26.48;13.45;;;;;;;9.71;87.74;102019.97;5025784;28;20983;-67
2022/05/07 04:39:03;;;;;;;26.65;13.55;;;;;;;9.68;88.19;102022.81;5045452;28;20580;-67
2022/05/07 04:41:33;;;;;;;23.75;14.20;;;;;;;9.65;88.47;102023.03;5007676;28;20120;-67
2022/05/07 04:43:58;;;;;;;23.45;12.63;;;;;;;9.67;88.83;102025.50;5041935;28;20033;-67
2022/05/07 04:46:24;;;;;;;23.88;14.23;;;;;;;9.66;88.81;102029.88;5029096;28;20033;-67
2022/05/07 04:49:00;;;;;;;29.27;14.25;;;;;;;9.64;89.02;102028.34;5013477;28;20080;-67
2022/05/07 04:51:26;;;;;;;29.83;16.10;;;;;;;9.64;89.35;102029.16;5007023;28;20096;-67
2022/05/07 04:54:02;;;;;;;29.88;16.05;;;;;;;9.65;89.46;102030.00;5023028;28;20018;-67
2022/05/07 04:56:28;;;;;;;26.77;13.75;;;;;;;9.67;90.12;102036.69;5042668;28;20095;-67
2022/05/07 04:59:00;;;;;;;26.30;15.30;;;;;;;9.71;90.34;102032.91;5025051;28;20032;-67
2022/05/07 05:01:33;;;;;;;29.73;15.05;;;;;;;9.77;90.69;102034.19;5033197;28;20069;-67
2022/05/07 05:04:02;;;;;;;28.05;16.35;;;;;;;9.81;91.16;102038.19;5037922;28;20030;-66
2022/05/07 05:06:30;;;;;;;28.88;16.58;;;;;;;9.87;91.57;102045.50;5041069;28;20082;-67
2022/05/07 05:09:05;;;;;;;25.50;15.35;;;;;;;9.91;91.52;102043.50;5031988;28;20044;-68
2022/05/07 05:11:34;;;;;;;29.05;16.77;;;;;;;9.96;91.51;102046.53;5038038;28;20045;-67
2022/05/07 05:14:00;;;;;;;27.83;16.30;;;;;;;10.02;91.85;102050.41;5025367;28;20040;-67
2022/05/07 05:16:28;;;;;;;28.45;16.27;;;;;;;10.11;91.99;102045.31;5024286;28;20044;-67
2022/05/07 05:19:01;;;;;;;35.80;18.65;;;;;;;10.24;91.76;102044.31;5025766;28;20059;-67
2022/05/07 05:21:27;;;;;;;35.45;18.02;;;;;;;10.30;91.69;102039.50;5024285;28;20042;-67
2022/05/07 05:24:00;;;;;;;;;;;;;;;10.38;91.83;102040.63;5026276;28;20091;-67
2022/05/07 05:26:26;;;;;;;33.03;19.13;;;;;;;10.43;91.44;102044.50;5021009;28;19921;-67
2022/05/07 05:28:56;;;;;;;40.72;20.83;;;;;;;10.58;91.40;102042.44;5012564;28;20039;-67
2022/05/07 05:31:23;;;;;;;32.05;18.30;;;;;;;10.68;90.91;102047.69;5024629;28;20029;-67
2022/05/07 05:33:57;;;;;;;32.95;18.27;;;;;;;10.80;90.74;102041.50;5043046;28;20021;-67
2022/05/07 05:36:31;;;;;;;41.75;18.58;;;;;;;10.96;90.14;102051.41;5026188;28;20399;-67
2022/05/07 05:38:57;;;;;;;34.50;17.85;;;;;;;11.07;89.47;102055.72;5029564;28;20068;-67
2022/05/07 05:41:26;;;;;;;32.50;18.48;;;;;;;11.20;89.17;102050.31;5038605;28;20128;-67
2022/05/07 05:43:53;;;;;;;33.33;18.08;;;;;;;11.36;87.56;102049.81;5009805;28;20037;-67
2022/05/07 05:46:19;;;;;;;37.35;19.00;;;;;;;11.55;85.43;102047.31;5023774;28;20029;-67
2022/05/07 05:48:48;;;;;;;30.35;17.48;;;;;;;11.69;85.13;102048.72;5023955;28;20037;-67
2022/05/07 05:51:13;;;;;;;32.15;18.20;;;;;;;11.85;84.97;102051.63;5008183;28;20037;-67
2022/05/07 05:53:43;;;;;;;31.75;16.08;;;;;;;12.05;84.25;102052.53;5023208;28;20379;-67
2022/05/07 05:56:11;;;;;;;33.83;19.55;;;;;;;12.26;82.03;102044.59;5042295;28;20022;-67
2022/05/07 05:58:42;;;;;;;30.38;16.45;;;;;;;12.44;80.38;102049.94;5027871;28;20032;-67
2022/05/07 06:01:09;;;;;;;31.55;17.30;;;;;;;12.56;80.53;102045.38;5004727;28;20219;-67
2022/05/07 06:03:45;;;;;;;31.65;16.83;;;;;;;12.72;79.75;102041.41;5040359;28;20041;-67
2022/05/07 06:06:15;;;;;;;30.02;16.95;;;;;;;12.84;79.29;102046.31;5034960;28;20033;-67
2022/05/07 06:08:42;;;;;;;31.02;16.42;;;;;;;12.97;79.00;102047.78;5026737;28;20041;-67
2022/05/07 06:11:08;;;;;;;30.40;16.75;;;;;;;13.19;76.89;102047.44;5026142;28;20112;-68
2022/05/07 06:13:34;;;;;;;34.38;17.10;;;;;;;13.24;76.72;102047.84;5038167;28;20088;-67
2022/05/07 06:15:59;;;;;;;24.60;15.00;;;;;;;13.43;75.48;102051.38;5040140;28;20033;-68
2022/05/07 06:18:26;;;;;;;28.80;16.15;;;;;;;13.69;75.23;102054.09;5021085;28;20047;-67
2022/05/07 06:20:57;;;;;;;27.03;15.33;;;;;;;13.77;75.19;102056.00;5031069;28;20386;-67
2022/05/07 06:23:27;;;;;;;28.65;15.75;;;;;;;13.86;74.75;102062.09;5025479;28;20029;-67
2022/05/07 06:28:37;;;;;;;26.50;15.57;;;;;;;14.28;72.74;102059.75;5040065;28;20479;-67
2022/05/07 06:31:04;;;;;;;26.73;15.20;;;;;;;14.32;72.80;102053.25;5023318;28;20605;-67
2022/05/07 06:33:32;;;;;;;23.95;13.20;;;;;;;14.35;73.12;102060.78;5032912;28;20033;-67
2022/05/07 06:36:02;;;;;;;31.08;15.25;;;;;;;14.40;73.14;102068.16;5025329;28;20031;-68
2022/05/07 06:38:33;;;;;;;26.15;13.82;;;;;;;14.50;73.46;102061.06;5007199;28;20576;-67
2022/05/07 06:41:02;;;;;;;32.72;15.13;;;;;;;14.69;72.45;102061.88;5025854;28;20036;-67
2022/05/07 06:43:33;;;;;;;27.58;14.60;;;;;;;14.92;70.03;102060.41;5036819;28;20034;-67
2022/05/07 06:46:01;;;;;;;27.10;13.52;;;;;;;14.99;69.33;102064.06;5027176;28;20495;-67
2022/05/07 06:48:27;;;;;;;21.80;12.77;;;;;;;15.05;69.16;102062.63;5024383;28;20063;-68
2022/05/07 06:50:58;;;;;;;21.52;11.73;;;;;;;15.10;68.91;102062.94;5029154;28;20068;-67
2022/05/07 06:53:25;;;;;;;24.75;13.65;;;;;;;15.10;68.83;102062.94;5039786;28;20061;-68
2022/05/07 06:55:59;;;;;;;21.70;12.15;;;;;;;15.18;68.35;102060.41;5026445;28;20056;-68
2022/05/07 06:58:30;;;;;;;24.85;14.20;;;;;;;15.18;68.65;102064.78;5024779;28;20045;-68
2022/05/07 07:00:56;;;;;;;22.63;11.82;;;;;;;15.22;68.64;102065.28;5027459;28;20547;-68
2022/05/07 07:03:23;;;;;;;21.98;11.90;;;;;;;15.35;68.52;102066.53;5027715;28;20025;-68
2022/05/07 07:05:50;;;;;;;22.88;12.18;;;;;;;15.45;67.82;102057.75;5036119;28;20068;-68
2022/05/07 07:08:16;;;;;;;20.08;10.65;;;;;;;15.75;67.73;102061.63;5033456;28;20033;-68
2022/05/07 07:10:42;;;;;;;18.48;10.27;;;;;;;16.22;66.63;102061.06;5038171;28;20041;-68
2022/05/07 07:13:08;;;;;;;20.63;12.35;;;;;;;16.68;65.07;102065.78;5032625;28;20033;-67
2022/05/07 07:15:35;;;;;;;23.38;10.90;;;;;;;17.08;63.05;102057.06;5032292;28;20033;-68
2022/05/07 07:18:04;;;;;;;18.75;11.02;;;;;;;17.47;61.46;102058.03;5034438;28;20271;-68
2022/05/07 07:20:30;;;;;;;22.25;12.77;;;;;;;17.65;60.84;102058.63;5033481;28;20041;-68
2022/05/07 07:22:56;;;;;;;23.67;12.43;;;;;;;17.60;60.25;102063.56;5035472;28;20060;-68
2022/05/07 07:25:21;;;;;;;23.08;10.60;;;;;;;17.39;61.83;102064.16;5012712;28;20507;-68
2022/05/07 07:27:47;;;;;;;23.13;12.00;;;;;;;17.24;62.18;102057.97;5046278;28;20128;-67
2022/05/07 07:30:12;;;;;;;27.63;11.73;;;;;;;17.15;62.06;102057.19;5032974;28;20033;-68
2022/05/07 07:32:38;;;;;;;20.02;11.63;;;;;;;17.19;62.30;102055.84;5034670;28;20113;-68
2022/05/07 07:35:05;;;;;;;16.50;9.63;;;;;;;17.28;62.32;102060.09;5029747;28;20030;-67
2022/05/07 07:37:32;;;;;;;14.98;9.35;;;;;;;17.40;62.00;102057.91;5042783;28;20033;-68
2022/05/07 07:40:00;;;;;;;17.58;9.43;;;;;;;17.65;61.52;102053.38;5035774;28;20033;-68
2022/05/07 07:42:27;;;;;;;22.90;11.30;;;;;;;17.97;60.41;102054.19;5028179;28;20032;-68
2022/05/07 07:47:56;;;;;;;20.25;11.30;;;;;;;18.25;59.65;102053.63;5007968;28;20114;-68
2022/05/07 07:50:22;;;;;;;22.58;10.88;;;;;;;19.36;57.14;102053.84;5030526;28;20063;-68
2022/05/07 07:52:51;;;;;;;19.58;10.57;;;;;;;19.86;55.83;102054.03;5036701;28;20057;-68
2022/05/07 07:55:16;;;;;;;19.55;11.30;;;;;;;20.22;54.33;102060.03;5033840;28;20501;-68
2022/05/07 07:57:42;;;;;;;24.55;13.20;;;;;;;20.47;52.90;102054.34;5031137;28;20029;-68
2022/05/07 08:00:08;;;;;;;22.95;11.32;;;;;;;20.70;52.38;102048.88;5046823;28;20033;-68
2022/05/07 08:02:55;;;;;;;20.88;12.70;;;;;;;20.57;52.07;102057.47;5033754;28;20128;-68
2022/05/07 08:05:22;;;;;;;;;;;;;;;20.95;52.20;102051.06;5027186;28;20033;-68
2022/05/07 08:13:16;;;;;;;23.33;11.18;;;;;;;21.77;49.30;102052.81;5026135;28;20399;-68
2022/05/07 08:15:42;;;;;;;20.90;12.35;;;;;;;22.01;48.67;102057.69;5010831;28;20025;-68
2022/05/07 08:18:07;;;;;;;21.08;10.95;;;;;;;22.34;48.29;102055.91;5030175;28;20037;-68
2022/05/07 08:20:33;;;;;;;26.13;12.43;;;;;;;22.44;46.96;102052.84;5031465;28;20065;-68
2022/05/07 08:23:00;;;;;;;19.55;11.55;;;;;;;22.70;47.70;102059.13;5033648;28;20036;-68
2022/05/07 08:25:25;;;;;;;21.00;12.45;;;;;;;22.79;46.03;102052.56;5025272;28;20032;-68
2022/05/07 08:27:51;;;;;;;24.58;11.50;;;;;;;22.82;45.40;102054.00;5026994;28;20479;-68
2022/05/07 08:30:17;;;;;;;19.10;11.52;;;;;;;22.67;45.62;102056.88;5030142;28;20083;-68
2022/05/07 08:32:42;;;;;;;24.58;13.43;;;;;;;22.38;46.07;102056.31;5051545;28;20491;-68
2022/05/07 08:35:08;;;;;;;23.27;12.23;;;;;;;22.56;46.80;102055.69;5031453;28;20033;-68
2022/05/07 08:37:33;;;;;;;16.90;10.77;;;;;;;22.91;47.15;102052.78;5029111;28;20392;-68
2022/05/07 08:40:01;;;;;;;18.70;10.98;;;;;;;23.40;45.52;102058.50;5049408;28;20037;-68
2022/05/07 08:42:30;;;;;;;18.98;11.07;;;;;;;23.34;45.09;102054.88;5023124;28;20091;-68
2022/05/07 08:44:56;;;;;;;18.05;12.05;;;;;;;23.62;44.02;102059.81;5025626;28;20056;-68
2022/05/07 08:47:25;;;;;;;20.15;12.77;;;;;;;23.40;45.15;102063.81;5024655;28;20604;-68
2022/05/07 08:49:51;;;;;;;27.42;14.15;;;;;;;23.03;44.74;102059.06;5030868;28;20128;-68
2022/05/07 08:52:20;;;;;;;17.88;10.57;;;;;;;23.22;44.49;102054.69;5042239;28;20029;-67
2022/05/07 08:54:45;;;;;;;21.30;12.25;;;;;;;23.25;45.56;102049.00;5025203;28;20033;-68
2022/05/07 08:57:12;;;;;;;23.92;13.05;;;;;;;23.24;45.82;102057.94;5041779;28;20419;-68
2022/05/07 08:59:38;;;;;;;21.30;12.18;;;;;;;23.71;44.31;102045.31;5018972;28;20081;-68
2022/05/07 09:02:04;;;;;;;18.42;10.43;;;;;;;23.96;44.52;102051.66;5026475;28;20044;-68
2022/05/07 09:04:30;;;;;;;21.13;11.30;;;;;;;24.12;43.27;102050.34;5023279;28;20359;-68
2022/05/07 09:07:01;;;;;;;23.83;11.82;;;;;;;24.43;42.92;102054.72;5027020;28;20041;-68
2022/05/07 09:09:30;;;;;;;18.70;11.50;;;;;;;24.40;44.21;102044.59;5024229;28;20041;-68
2022/05/07 09:11:56;;;;;;;24.60;13.35;;;;;;;24.59;42.49;102043.59;5025219;28;20422;-69
2022/05/07 09:14:31;;;;;;;17.27;10.25;;;;;;;24.46;42.92;102055.09;5026832;28;20032;-68
2022/05/07 09:17:00;;;;;;;;;;;;;;;24.34;41.98;102053.41;5044678;28;20072;-69
2022/05/07 09:19:27;;;;;;;25.30;11.88;;;;;;;24.28;42.53;102047.94;5028714;28;19927;-68
2022/05/07 09:22:09;;;;;;;17.45;9.48;;;;;;;24.57;43.04;102050.97;5026424;28;20095;-68
2022/05/07 09:24:34;;;;;;;17.25;10.88;;;;;;;24.39;42.12;102043.78;5021828;28;20052;-68
2022/05/07 09:27:02;;;;;;;21.75;11.18;;;;;;;24.58;41.98;102044.66;5043093;28;20037;-69
2022/05/07 09:29:28;;;;;;;25.17;11.98;;;;;;;24.38;42.36;102044.00;5009552;28;20047;-68
2022/05/07 09:31:54;;;;;;;20.90;11.60;;;;;;;24.71;42.05;102046.31;5027129;28;20041;-69
2022/05/07 09:37:19;;;;;;;18.17;10.93;;;;;;;24.22;42.66;102048.81;5026206;28;20134;-68
2022/05/07 09:39:48;;;;;;;22.52;11.00;;;;;;;24.51;42.84;102043.06;5026374;28;20036;-69
2022/05/07 09:42:21;;;;;;;20.25;11.40;;;;;;;24.29;42.94;102044.25;5022012;28;20055;-68
2022/05/07 09:44:47;;;;;;;22.73;12.25;;;;;;;24.39;43.53;102045.59;5026988;28;20045;-68
2022/05/07 09:47:13;;;;;;;18.88;11.30;;;;;;;24.80;41.97;102034.41;5025518;28;20076;-68
2022/05/07 09:52:30;;;;;;;21.02;12.02;;;;;;;24.48;42.38;102039.78;5022223;28;20112;-68
2022/05/07 09:57:41;;;;;;;19.15;10.38;;;;;;;24.79;42.20;102037.25;5023385;28;20048;-69
2022/05/07 10:00:11;;;;;;;21.58;10.20;;;;;;;24.85;41.64;102033.75;5044634;28;20108;-69
2022/05/07 10:03:01;;;;;;;20.20;11.80;;;;;;;24.86;42.10;102043.31;5022758;28;20052;-69
2022/05/07 10:05:57;;;;;;;20.83;13.05;;;;;;;24.87;40.51;102036.97;5021976;28;20129;-68
2022/05/07 10:08:31;;;;;;;17.15;10.77;;;;;;;24.78;40.76;102040.97;5026603;28;20359;-68
2022/05/07 10:10:58;;;;;;;18.27;9.73;;;;;;;24.87;40.50;102034.34;5041619;28;20067;-69
2022/05/07 10:13:24;;;;;;;18.85;11.57;;;;;;;24.92;41.15;102031.84;5025258;28;20626;-69
2022/05/07 10:16:00;;;;;;;21.70;11.73;;;;;;;24.72;40.32;102021.44;5010692;28;20048;-69
2022/05/07 10:18:38;;;;;;;23.98;12.48;;;;;;;24.61;41.50;102030.13;5024061;28;20410;-69
2022/05/07 10:21:11;;;;;;;17.77;11.18;;;;;;;24.83;40.58;102023.34;5027329;28;20037;-69
2022/05/07 10:23:57;;;;;;;20.25;12.63;;;;;;;24.82;41.17;102020.91;5024922;28;20056;-68
2022/05/07 10:26:45;;;;;;;21.45;12.63;;;;;;;24.96;40.79;102024.22;5025762;28;20037;-68
2022/05/07 10:29:23;;;;;;;22.33;13.50;;;;;;;24.71;39.74;102025.09;5026043;28;20642;-69
2022/05/07 10:31:49;;;;;;;22.10;12.55;;;;;;;24.83;41.17;102018.06;5025630;28;20079;-69
2022/05/07 10:34:25;;;;;;;21.40;12.70;;;;;;;25.02;40.09;102021.50;5026950;28;20029;-69
2022/05/07 10:37:04;;;;;;;20.10;12.60;;;;;;;25.26;40.09;102013.69;5024454;28;20068;-68
2022/05/07 10:39:31;;;;;;;18.63;12.02;;;;;;;25.27;40.22;102025.09;5036846;28;20095;-69
2022/05/07 10:41:57;;;;;;;17.75;12.05;;;;;;;25.51;40.64;102012.72;5043650;28;20029;-69
2022/05/07 10:44:33;;;;;;;22.27;13.77;;;;;;;25.60;37.67;102012.16;5023424;28;20040;-68
2022/05/07 10:47:10;;;;;;;21.42;11.40;;;;;;;25.31;39.21;102007.69;5038662;28;20140;-69
2022/05/07 10:49:49;;;;;;;25.63;14.55;;;;;;;25.25;38.08;102004.09;5024010;28;20044;-69
2022/05/07 10:52:15;;;;;;;20.80;12.15;;;;;;;25.32;40.11;102014.63;5029946;28;20052;-68
2022/05/07 10:54:40;;;;;;;28.45;14.02;;;;;;;25.35;39.25;102003.53;5029478;28;20037;-68
2022/05/07 10:57:06;;;;;;;25.58;14.20;;;;;;;25.42;39.33;102007.72;5039519;28;20403;-68
2022/05/07 10:59:33;;;;;;;27.98;15.88;;;;;;;24.95;38.54;101998.72;5040406;28;20068;-69
2022/05/07 11:02:06;;;;;;;26.05;13.52;;;;;;;24.75;39.49;102001.63;5025761;28;20025;-69
2022/05/07 11:04:44;;;;;;;23.65;12.18;;;;;;;24.54;39.80;102005.53;5021387;28;20112;-69
2022/05/07 11:07:10;;;;;;;24.38;13.48;;;;;;;24.12;40.40;102007.94;5020923;28;20048;-68
2022/05/07 11:09:37;;;;;;;20.92;12.90;;;;;;;24.15;40.77;102008.31;5023810;28;20426;-69
2022/05/07 11:12:03;;;;;;;30.52;13.60;;;;;;;24.42;40.56;101998.28;5023635;28;20025;-69
2022/05/07 11:14:32;;;;;;;22.60;13.73;;;;;;;24.85;40.85;101997.41;5022102;28;20651;-69
2022/05/07 11:17:00;;;;;;;20.10;12.82;;;;;;;25.24;38.88;101997.13;5023330;28;20026;-69
2022/05/07 11:19:33;;;;;;;22.08;12.00;;;;;;;25.47;38.87;101990.28;5022783;28;20115;-69
2022/05/07 11:22:00;;;;;;;21.55;13.07;;;;;;;25.44;39.45;101992.38;5023209;28;20040;-69
2022/05/07 11:24:27;;;;;;;27.65;12.40;;;;;;;25.52;37.62;101993.09;5022161;28;20041;-69
2022/05/07 11:26:58;;;;;;;24.55;13.30;;;;;;;25.61;38.77;101991.72;5021979;28;20061;-69
2022/05/07 11:29:24;;;;;;;25.40;15.03;;;;;;;25.49;37.10;101990.91;5023830;28;20076;-69
2022/05/07 11:32:10;;;;;;;21.00;12.82;;;;;;;25.44;37.49;101989.72;5037396;28;20041;-69
2022/05/07 11:34:37;;;;;;;27.88;12.82;;;;;;;25.36;37.82;101981.28;5038317;28;20124;-69
2022/05/07 11:37:16;;;;;;;23.52;14.65;;;;;;;25.33;37.81;101987.03;5027336;28;20045;-69
2022/05/07 11:39:51;;;;;;;23.35;13.05;;;;;;;24.90;39.88;101982.66;5041491;28;20029;-69
2022/05/07 11:42:38;;;;;;;19.90;12.60;;;;;;;24.87;38.84;101981.28;5027724;28;20120;-69
2022/05/07 11:45:27;;;;;;;19.02;11.70;;;;;;;24.56;39.35;101985.72;5025075;28;20049;-69